Breckenridge, CO (80424)

8:26 PM MDT on September 15, 2014 (GMT -0600)
Downtown | Change Station
CLOSE
Current Station
Personal Weather Station
Location: Breckenridge, CO
Elevation: 9590 ft
Nearby Weather Stations

Elev 9590 ft 39.48 °N, 106.05 °W | Updated 25 seconds ago

Mostly Cloudy
Mostly Cloudy
50.8 °F
Feels Like 50.8 °F
N
2.0
Wind Variable Wind from South
Gusts 8.0 mph

Today
High -- | Low -- °F
--% Chance of Precip.
Yesterday
High -- | Low -- °F
Precip. -- in
6:45 AM 7:12 PM
Waning Gibbous, 50% visible
Pressure 30.15 in
Visibility 10.0 miles
Clouds Overcast 10000 ft
Dew Point 35 °F
Humidity 55%
Rainfall 0.00 in
Snow Depth 0 in , 11 in , 12 in
UV 0 out of 12
Pollen 7.00 out of 12
Air Quality Not available.
Flu Activity Not available.
METAR KLXV 160153Z AUTO 05006KT 10SM OVC100 09/M01 A3051 RMK AO2 SLP208 T00941006

More Conditions Fewer Conditions

Pressure 30.15 in
Visibility 10.0 miles
Clouds Overcast 10000 ft
Dew Point 35 °F
Humidity 55%
Rainfall 0.00 in
Snow Depth 0 in , 11 in , 12 in
UV 0 out of 12
Pollen 7.00 out of 12
Air Quality Not available.
Flu Activity Not available.
METAR KLXV 160153Z AUTO 05006KT 10SM OVC100 09/M01 A3051 RMK AO2 SLP208 T00941006

More Conditions Fewer Conditions

Nowcast | as of 7:07 PM MDT on September 15, 2014

Isolated showers and thunderstorms will diminish across the northern mountains and high valleys by 830 PM. Expect brief light rain and gusty winds to 30 mph along with cloud to ground lightning from the showers.

×

10-Day Weather Forecast

Almanac

Astronomy

Sep. 15, 2014 Rise Set
Actual Time 6:45 AM MDT 7:12 PM MDT
Civil Twilight 6:18 AM MDT 7:39 PM MDT
Nautical Twilight 5:46 AM MDT 8:11 PM MDT
Astronomical Twilight 5:14 AM MDT 8:43 PM MDT
Moon 11:59 PM MDT (9/15) 1:46 PM MDT (9/15)
Length of Visible Light 13h 21m
Length of Day
12h 27m
Tomorrow will be 2m 33s shorter.
Waning Gibbous, 50% of the Moon is Illuminated
Today
Waning Gibbous
Sep 24
New
Oct 1
First Quarter
Oct 8
Full
Oct 15
Last Quarter

Today's Extremes

State Highs State Lows

Community

WunderPhotos

Upload Photos

1,753,666 photos uploaded!

Nearby

Snow Depth

Station Depth Elevation
Bison Lake 0 in 10880 ft
Rawah 11 in 9020 ft
Mccoy Park 12 in 9480 ft
Loveland Basin 3 in 11400 ft
Vail Mountain 88 in 10300 ft

Earthquake Activity

City Distance Mag. Time & Date
No recent earthquake activity has been reported nearby.
Minimum magnitude displayed is 2.5.

Coastal Water Temperatures

Place Temperature
No Stations Reporting

Nearby Weather Stations